Milan, Kansas
Current Conditions -  °F | °C
As of 9:53 AM on Wednesday 22 Oct 2014 (Local Time) from KICT Reporting Station
Few Clouds Few Clouds  
Wind Chill: 65°   Ceiling: Unl
Heat Index: 65°   Visibility: 10mi
Dew Point: 58°   Wind: 13mph
Humidity: 78%   Direction: 170°S
Pressure: 30.13"   Gusts: NA
Location:  37.26°N, 97.67°W
Report Text: KICT 221453Z 17011KT 10SM FEW100 FEW200 18/14 A3013 RMK AO2 SLP193 T01830144 51009
Loading
Personal Weather Stations






























Interactive Weather Map
Tropical Storm Tracking
New forecast layout! Learn more

10-Day Weather Forecast

Advertisements
Track Severe Weather on mobile